Time;durP1;ratioP1;P1;durP2;ratioP2;P2;SDS_P1;SDS_P2;PMS_P1;PMS_P2;Temp;Humidity;BMP_temperature;BMP_pressure;BME280_temperature;BME280_humidity;BME280_pressure;Samples;Min_cycle;Max_cycle;Signal;HPM_P1;HPM_P2
2022/11/16 00:01:20;;;;;;;;;;;9.60;86.00;;;;;;5076958;28;19912;-77
2022/11/16 00:03:46;;;;;;;;;;;9.60;86.00;;;;;;5077271;28;20176;-75
2022/11/16 00:06:12;;;;;;;;;;;9.60;86.00;;;;;;5042022;28;19963;-77
2022/11/16 00:08:38;;;;;;;;;;;9.60;86.00;;;;;;5075462;28;19916;-76
2022/11/16 00:11:04;;;;;;;;;;;9.60;86.00;;;;;;5073329;28;19924;-74
2022/11/16 00:13:30;;;;;;;;;;;9.60;86.00;;;;;;5076375;28;19917;-76
2022/11/16 00:15:56;;;;;;;;;;;9.60;86.00;;;;;;5053325;28;19924;-76
2022/11/16 00:18:22;;;;;;;;;;;9.60;86.00;;;;;;5059340;28;19924;-75
2022/11/16 00:20:48;;;;;;;;;;;9.60;86.10;;;;;;5038574;28;19921;-75
2022/11/16 00:23:15;;;;;;;;;;;9.60;86.10;;;;;;5075572;28;19948;-76
2022/11/16 00:25:41;;;;;;;;;;;9.60;86.10;;;;;;5054207;28;19984;-76
2022/11/16 00:28:06;;;;;;;;;;;9.60;86.10;;;;;;5074284;28;19944;-76
2022/11/16 00:30:32;;;;;;;;;;;9.60;86.10;;;;;;5038527;28;20258;-76
2022/11/16 00:33:00;;;;;;;;;;;9.60;86.10;;;;;;5059801;28;19982;-75
2022/11/16 00:35:26;;;;;;;;;;;9.60;86.10;;;;;;5069360;28;19935;-76
2022/11/16 00:37:51;;;;;;;;;;;9.60;86.90;;;;;;5039973;28;19921;-76
2022/11/16 00:40:17;;;;;;;;;;;9.60;86.10;;;;;;5039990;28;20065;-76
2022/11/16 00:42:42;;;;;;;;;;;9.60;86.10;;;;;;5076186;28;19959;-76
2022/11/16 00:45:08;;;;;;;;;;;9.60;86.10;;;;;;5075043;28;19916;-77
2022/11/16 00:47:34;;;;;;;;;;;9.60;86.10;;;;;;5073784;28;19917;-75
2022/11/16 00:49:59;;;;;;;;;;;9.60;86.10;;;;;;5057507;28;20450;-76
2022/11/16 00:52:25;;;;;;;;;;;9.60;86.10;;;;;;5051535;28;20366;-76
2022/11/16 00:54:50;;;;;;;;;;;9.60;86.10;;;;;;5074279;28;19956;-76
2022/11/16 00:57:16;;;;;;;;;;;9.60;86.10;;;;;;5043504;28;19932;-76
2022/11/16 00:59:41;;;;;;;;;;;9.60;86.20;;;;;;5072054;28;19924;-76
2022/11/16 01:02:06;;;;;;;;;;;9.60;86.20;;;;;;5072918;28;19920;-76
2022/11/16 01:04:32;;;;;;;;;;;9.60;86.20;;;;;;5074944;28;19966;-76
2022/11/16 01:06:57;;;;;;;;;;;9.60;86.10;;;;;;5055773;28;19923;-75
2022/11/16 01:09:23;;;;;;;;;;;9.60;86.20;;;;;;5074752;28;19991;-76
2022/11/16 01:14:33;;;;;;;;;;;9.60;86.20;;;;;;5058515;28;19935;-75
2022/11/16 01:16:58;;;;;;;;;;;9.50;86.10;;;;;;5044705;28;19976;-76
2022/11/16 01:19:23;;;;;;;;;;;9.60;86.20;;;;;;5059052;28;20027;-76
2022/11/16 01:21:49;;;;;;;;;;;9.50;86.00;;;;;;5055845;28;19924;-75
2022/11/16 01:24:14;;;;;;;;;;;9.60;86.20;;;;;;5075947;28;19917;-77
2022/11/16 01:26:40;;;;;;;;;;;9.60;86.20;;;;;;5074393;28;20451;-75
2022/11/16 01:29:05;;;;;;;;;;;9.60;86.20;;;;;;5077352;28;19938;-76
2022/11/16 01:31:31;;;;;;;;;;;9.60;86.20;;;;;;5045383;28;19939;-75
2022/11/16 01:33:56;;;;;;;;;;;9.60;86.20;;;;;;5076397;28;19917;-76
2022/11/16 01:36:22;;;;;;;;;;;9.60;86.20;;;;;;5060756;28;19927;-76
2022/11/16 01:38:47;;;;;;;;;;;9.60;86.20;;;;;;5074326;28;20348;-75
2022/11/16 01:41:14;;;;;;;;;;;9.60;86.20;;;;;;5059907;28;19958;-76
2022/11/16 01:43:49;;;;;;;;;;;9.60;86.20;;;;;;5077571;28;19928;-76
2022/11/16 01:46:14;;;;;;;;;;;9.60;87.00;;;;;;5076828;28;19931;-77
2022/11/16 01:48:40;;;;;;;;;;;9.60;86.20;;;;;;5059874;28;19983;-76
2022/11/16 01:51:05;;;;;;;;;;;9.60;86.20;;;;;;5076638;28;19931;-76
2022/11/16 01:53:31;;;;;;;;;;;9.60;86.20;;;;;;5075583;28;19924;-76
2022/11/16 01:55:56;;;;;;;;;;;9.60;86.20;;;;;;5077125;28;19942;-76
2022/11/16 01:58:22;;;;;;;;;;;9.60;86.20;;;;;;5076200;28;19920;-76
2022/11/16 02:00:47;;;;;;;;;;;9.60;86.20;;;;;;5051525;28;19924;-76
2022/11/16 02:03:16;;;;;;;;;;;9.50;86.20;;;;;;5037815;28;20359;-77
2022/11/16 02:05:46;;;;;;;;;;;9.60;86.20;;;;;;5074133;28;19916;-77
2022/11/16 02:11:16;;;;;;;;;;;9.60;86.20;;;;;;5072524;28;20008;-76
2022/11/16 02:13:50;;;;;;;;;;;9.60;86.20;;;;;;5071223;28;19916;-77
2022/11/16 02:16:15;;;;;;;;;;;9.60;86.20;;;;;;5032408;28;19936;-76
2022/11/16 02:18:41;;;;;;;;;;;9.60;86.30;;;;;;5049508;28;19928;-75
2022/11/16 02:21:29;;;;;;;;;;;9.50;86.50;;;;;;5073158;28;20396;-76
2022/11/16 02:24:01;;;;;;;;;;;9.50;86.20;;;;;;5059296;28;19928;-76
2022/11/16 02:26:26;;;;;;;;;;;9.50;86.20;;;;;;5057164;28;19920;-76
2022/11/16 02:29:01;;;;;;;;;;;9.50;86.20;;;;;;5072944;28;20019;-77
2022/11/16 02:31:27;;;;;;;;;;;9.50;86.20;;;;;;5066549;28;20093;-75
2022/11/16 02:33:53;;;;;;;;;;;9.50;86.20;;;;;;5054797;28;20021;-76
2022/11/16 02:36:19;;;;;;;;;;;9.50;86.20;;;;;;5042075;28;19924;-76
2022/11/16 02:38:50;;;;;;;;;;;9.50;86.30;;;;;;5040614;28;19923;-77
2022/11/16 02:41:16;;;;;;;;;;;9.50;86.30;;;;;;5051090;28;19920;-76
2022/11/16 02:43:42;;;;;;;;;;;9.50;86.30;;;;;;5052780;28;19924;-76
2022/11/16 02:46:09;;;;;;;;;;;9.50;86.30;;;;;;5051832;28;19962;-77
2022/11/16 02:48:36;;;;;;;;;;;9.50;86.30;;;;;;5071683;28;19939;-76
2022/11/16 02:51:01;;;;;;;;;;;9.50;86.40;;;;;;5070037;28;19920;-76
2022/11/16 02:53:26;;;;;;;;;;;9.50;86.30;;;;;;5070397;28;19985;-76
2022/11/16 02:55:52;;;;;;;;;;;9.50;86.30;;;;;;5054633;28;19931;-76
2022/11/16 02:58:20;;;;;;;;;;;9.50;86.30;;;;;;5054347;28;19925;-76
2022/11/16 03:00:50;;;;;;;;;;;9.50;86.40;;;;;;5044233;28;19920;-76
2022/11/16 03:03:19;;;;;;;;;;;9.50;86.40;;;;;;5048014;28;19970;-76
2022/11/16 03:05:58;;;;;;;;;;;9.50;86.40;;;;;;5071160;28;19924;-75
2022/11/16 03:08:43;;;;;;;;;;;9.50;86.40;;;;;;5049372;28;19928;-77
2022/11/16 03:13:54;;;;;;;;;;;9.50;86.40;;;;;;5055833;28;19927;-76
2022/11/16 03:16:26;;;;;;;;;;;9.50;86.40;;;;;;5046751;28;19916;-77
2022/11/16 03:18:52;;;;;;;;;;;9.50;86.40;;;;;;5071187;28;19932;-77
2022/11/16 03:21:23;;;;;;;;;;;9.50;86.40;;;;;;5037725;28;20846;-77
2022/11/16 03:23:49;;;;;;;;;;;9.50;86.40;;;;;;5051002;28;20000;-76
2022/11/16 03:26:15;;;;;;;;;;;9.50;86.40;;;;;;5075226;28;19972;-76
2022/11/16 03:28:45;;;;;;;;;;;9.50;86.40;;;;;;5057135;28;19924;-77
2022/11/16 03:31:11;;;;;;;;;;;9.50;86.40;;;;;;5071169;28;19999;-75
2022/11/16 03:33:38;;;;;;;;;;;9.50;86.40;;;;;;5050759;28;19927;-76
2022/11/16 03:36:05;;;;;;;;;;;9.50;86.40;;;;;;5051765;28;19921;-74
2022/11/16 03:38:30;;;;;;;;;;;9.50;86.40;;;;;;5042691;28;19973;-76
2022/11/16 03:40:58;;;;;;;;;;;9.50;86.40;;;;;;5071950;28;19916;-77
2022/11/16 03:43:23;;;;;;;;;;;9.50;86.40;;;;;;5041835;28;21873;-76
2022/11/16 03:45:49;;;;;;;;;;;9.50;86.40;;;;;;5046581;28;20395;-77
2022/11/16 03:48:14;;;;;;;;;;;9.50;86.50;;;;;;5055587;28;19936;-77
2022/11/16 03:50:40;;;;;;;;;;;9.50;86.40;;;;;;5074198;28;19923;-76
2022/11/16 03:53:05;;;;;;;;;;;9.50;86.40;;;;;;5051612;28;19916;-76
2022/11/16 03:55:31;;;;;;;;;;;9.50;86.40;;;;;;5071288;28;19924;-76
2022/11/16 03:57:56;;;;;;;;;;;9.50;86.40;;;;;;5074133;28;19971;-75
2022/11/16 04:00:22;;;;;;;;;;;9.50;86.40;;;;;;5075891;28;20388;-76
2022/11/16 04:02:47;;;;;;;;;;;9.50;86.40;;;;;;5073493;28;19916;-76
2022/11/16 04:24:24;;;;;;;;;;;9.50;86.40;;;;;;5034541;28;20318;-76
2022/11/16 04:29:35;;;;;;;;;;;9.50;86.50;;;;;;5074687;28;19923;-77
2022/11/16 04:37:48;;;;;;;;;;;9.50;86.50;;;;;;5055536;28;19974;-76
2022/11/16 04:40:14;;;;;;;;;;;9.50;86.50;;;;;;5058594;28;19927;-77
2022/11/16 04:42:39;;;;;;;;;;;9.50;86.60;;;;;;5035433;28;19931;-76
2022/11/16 04:47:50;;;;;;;;;;;9.50;86.50;;;;;;5057102;28;19970;-76
2022/11/16 04:50:16;;;;;;;;;;;9.50;86.50;;;;;;5057861;28;19920;-77
2022/11/16 04:52:41;;;;;;;;;;;9.50;86.50;;;;;;5068682;28;19916;-76
2022/11/16 04:55:07;;;;;;;;;;;9.50;86.50;;;;;;5057657;28;19927;-76
2022/11/16 04:57:32;;;;;;;;;;;9.50;86.50;;;;;;5072257;28;19955;-76
2022/11/16 04:59:58;;;;;;;;;;;9.60;86.60;;;;;;5059851;28;19970;-76
2022/11/16 05:02:23;;;;;;;;;;;9.50;86.50;;;;;;5073572;28;19920;-76
2022/11/16 05:04:49;;;;;;;;;;;9.60;86.60;;;;;;5069512;28;19925;-77
2022/11/16 05:07:14;;;;;;;;;;;9.60;86.60;;;;;;5054378;28;19916;-77
2022/11/16 05:09:41;;;;;;;;;;;9.50;86.50;;;;;;5055708;28;20397;-76
2022/11/16 05:12:13;;;;;;;;;;;9.60;86.60;;;;;;5058335;28;19960;-76
2022/11/16 05:14:39;;;;;;;;;;;9.60;86.60;;;;;;5073110;28;19968;-76
2022/11/16 05:17:04;;;;;;;;;;;9.60;86.60;;;;;;5074633;28;20396;-76
2022/11/16 05:22:14;;;;;;;;;;;9.60;86.60;;;;;;5072852;28;20011;-76
2022/11/16 05:24:40;;;;;;;;;;;9.60;86.50;;;;;;5071037;28;19924;-76
2022/11/16 05:27:06;;;;;;;;;;;9.60;86.50;;;;;;5043303;28;19917;-75
2022/11/16 05:29:32;;;;;;;;;;;9.60;86.50;;;;;;5054805;28;20368;-75
2022/11/16 05:31:57;;;;;;;;;;;9.60;86.60;;;;;;5057233;28;19927;-75
2022/11/16 05:34:23;;;;;;;;;;;9.60;86.60;;;;;;5054692;28;19924;-75
2022/11/16 05:36:48;;;;;;;;;;;9.60;86.60;;;;;;5054397;28;19916;-77
2022/11/16 05:39:14;;;;;;;;;;;9.70;86.60;;;;;;5071579;28;19920;-74
2022/11/16 05:41:39;;;;;;;;;;;9.60;86.60;;;;;;5055734;28;19936;-75
2022/11/16 05:44:05;;;;;;;;;;;9.60;86.60;;;;;;5074835;28;19923;-74
2022/11/16 05:46:30;;;;;;;;;;;9.60;86.60;;;;;;5072620;28;19988;-75
2022/11/16 05:48:56;;;;;;;;;;;9.60;86.50;;;;;;5071613;28;20451;-75
2022/11/16 05:51:21;;;;;;;;;;;9.60;86.50;;;;;;5054317;28;19931;-75
2022/11/16 05:53:48;;;;;;;;;;;9.70;86.70;;;;;;5070395;28;20171;-75
2022/11/16 05:56:14;;;;;;;;;;;9.60;86.60;;;;;;5073020;28;20325;-76
2022/11/16 05:58:40;;;;;;;;;;;9.60;86.50;;;;;;5054526;28;20519;-74
2022/11/16 06:01:05;;;;;;;;;;;9.60;86.50;;;;;;5074095;28;19952;-75
2022/11/16 06:03:31;;;;;;;;;;;9.60;86.60;;;;;;5053446;28;19916;-75
2022/11/16 06:05:56;;;;;;;;;;;9.70;86.70;;;;;;5072944;28;20271;-74
2022/11/16 06:08:22;;;;;;;;;;;9.70;86.70;;;;;;5070014;28;20001;-75
2022/11/16 06:10:47;;;;;;;;;;;9.70;86.60;;;;;;5071438;28;19920;-75
2022/11/16 06:13:13;;;;;;;;;;;9.70;86.60;;;;;;5072103;28;20733;-75
2022/11/16 06:15:38;;;;;;;;;;;9.70;86.60;;;;;;5071901;28;19921;-75
2022/11/16 06:18:04;;;;;;;;;;;9.70;86.60;;;;;;5053630;28;19917;-74
2022/11/16 06:20:30;;;;;;;;;;;9.60;86.60;;;;;;5052070;28;19973;-76
2022/11/16 06:22:55;;;;;;;;;;;9.60;86.60;;;;;;5049794;28;19928;-75
2022/11/16 06:25:21;;;;;;;;;;;9.70;86.70;;;;;;5070421;28;20620;-75
2022/11/16 06:27:46;;;;;;;;;;;9.70;86.60;;;;;;5056384;28;19946;-76
2022/11/16 06:30:12;;;;;;;;;;;9.70;86.60;;;;;;5056303;28;19921;-75
2022/11/16 06:32:37;;;;;;;;;;;9.70;86.60;;;;;;5074882;28;19920;-75
2022/11/16 06:35:03;;;;;;;;;;;9.70;86.70;;;;;;5067826;28;19943;-74
2022/11/16 06:37:28;;;;;;;;;;;9.70;86.70;;;;;;5073875;28;20652;-76
2022/11/16 06:39:54;;;;;;;;;;;9.70;86.60;;;;;;5052717;28;19950;-74
2022/11/16 06:42:19;;;;;;;;;;;9.70;86.60;;;;;;5054180;28;19917;-74
2022/11/16 06:44:45;;;;;;;;;;;9.70;86.60;;;;;;5055514;28;19926;-76
2022/11/16 06:47:10;;;;;;;;;;;9.70;86.60;;;;;;5051876;28;19924;-77
2022/11/16 06:49:36;;;;;;;;;;;9.70;86.60;;;;;;5070767;28;19916;-76
2022/11/16 06:52:01;;;;;;;;;;;9.70;86.60;;;;;;5053877;28;19969;-75
2022/11/16 06:54:27;;;;;;;;;;;9.70;86.60;;;;;;5077548;28;19920;-75
2022/11/16 06:56:52;;;;;;;;;;;9.70;86.60;;;;;;5077078;28;19951;-75
2022/11/16 06:59:18;;;;;;;;;;;9.80;86.70;;;;;;5076770;28;19927;-75
2022/11/16 07:01:43;;;;;;;;;;;9.70;86.60;;;;;;5059193;28;19978;-76
2022/11/16 07:04:10;;;;;;;;;;;9.70;86.60;;;;;;5075422;28;19924;-75
2022/11/16 07:06:39;;;;;;;;;;;9.70;86.60;;;;;;5044289;28;19920;-74
2022/11/16 07:09:04;;;;;;;;;;;9.70;86.70;;;;;;5068064;28;19931;-75
2022/11/16 07:11:30;;;;;;;;;;;9.70;86.60;;;;;;5075700;28;19920;-74
2022/11/16 07:13:55;;;;;;;;;;;9.80;86.70;;;;;;5074776;28;19950;-75
2022/11/16 07:16:21;;;;;;;;;;;9.70;86.60;;;;;;5073323;28;19928;-74
2022/11/16 07:18:47;;;;;;;;;;;9.70;86.60;;;;;;5055316;28;19929;-75
2022/11/16 07:21:13;;;;;;;;;;;9.70;86.60;;;;;;5038761;28;19921;-74
2022/11/16 07:23:38;;;;;;;;;;;9.70;86.60;;;;;;5068890;28;19944;-76
2022/11/16 07:26:04;;;;;;;;;;;9.70;86.70;;;;;;5069733;28;19912;-75
2022/11/16 07:28:30;;;;;;;;;;;9.80;86.70;;;;;;5044185;28;19927;-76
2022/11/16 07:31:05;;;;;;;;;;;9.80;86.70;;;;;;5070040;28;19923;-75
2022/11/16 07:33:31;;;;;;;;;;;9.80;86.70;;;;;;5073047;28;19921;-75
2022/11/16 07:36:03;;;;;;;;;;;9.80;86.80;;;;;;5075896;28;19980;-75
2022/11/16 07:38:29;;;;;;;;;;;9.80;86.70;;;;;;5058659;28;19925;-76
2022/11/16 07:40:58;;;;;;;;;;;9.80;86.70;;;;;;5078363;28;20438;-76
2022/11/16 07:43:23;;;;;;;;;;;9.80;86.70;;;;;;5075672;28;19920;-74
2022/11/16 07:45:51;;;;;;;;;;;9.80;86.70;;;;;;5056865;28;19974;-75
2022/11/16 07:48:16;;;;;;;;;;;9.80;86.70;;;;;;5072798;28;19920;-75
2022/11/16 07:50:42;;;;;;;;;;;9.80;86.70;;;;;;5074230;28;19925;-75
2022/11/16 07:53:07;;;;;;;;;;;9.80;86.70;;;;;;5057530;28;19943;-75
2022/11/16 07:55:33;;;;;;;;;;;9.80;86.70;;;;;;5078767;28;20005;-75
2022/11/16 07:57:58;;;;;;;;;;;9.80;87.50;;;;;;5076327;28;20007;-76
2022/11/16 08:00:24;;;;;;;;;;;9.90;86.70;;;;;;5073161;28;19939;-76
2022/11/16 08:02:49;;;;;;;;;;;9.90;86.70;;;;;;5073606;28;19940;-76
2022/11/16 08:05:15;;;;;;;;;;;9.90;86.70;;;;;;5056192;28;19943;-77
2022/11/16 08:07:40;;;;;;;;;;;9.90;86.70;;;;;;5058917;28;19924;-76
2022/11/16 08:10:06;;;;;;;;;;;9.90;86.70;;;;;;5065999;28;19917;-76
2022/11/16 08:12:31;;;;;;;;;;;9.90;86.70;;;;;;5050940;28;20404;-77
2022/11/16 08:14:57;;;;;;;;;;;9.90;86.70;;;;;;5070096;28;19932;-74
2022/11/16 08:17:22;;;;;;;;;;;9.90;86.70;;;;;;5074345;28;19998;-76
2022/11/16 08:19:48;;;;;;;;;;;9.90;86.60;;;;;;5056350;28;19981;-76
2022/11/16 08:22:13;;;;;;;;;;;9.90;86.70;;;;;;5073718;28;19920;-76
2022/11/16 08:24:39;;;;;;;;;;;10.00;86.70;;;;;;5036875;28;19917;-74
2022/11/16 08:27:04;;;;;;;;;;;10.00;86.70;;;;;;5037890;28;19929;-75
2022/11/16 08:29:30;;;;;;;;;;;10.00;86.70;;;;;;5064216;28;19925;-75
2022/11/16 08:31:55;;;;;;;;;;;10.00;86.70;;;;;;5056769;28;19916;-77
2022/11/16 08:34:21;;;;;;;;;;;10.10;86.80;;;;;;5070098;28;19948;-76
2022/11/16 08:36:46;;;;;;;;;;;10.10;86.70;;;;;;5073758;28;19924;-76
2022/11/16 08:39:12;;;;;;;;;;;10.10;86.70;;;;;;5075635;28;19916;-75
2022/11/16 08:41:37;;;;;;;;;;;10.20;86.70;;;;;;5074803;28;19980;-76
2022/11/16 08:44:03;;;;;;;;;;;10.20;86.70;;;;;;5076072;28;19921;-75
2022/11/16 08:46:29;;;;;;;;;;;10.20;86.70;;;;;;5057039;28;20320;-75
2022/11/16 08:48:55;;;;;;;;;;;10.20;86.70;;;;;;5053816;28;19917;-76
2022/11/16 08:51:21;;;;;;;;;;;10.30;86.70;;;;;;5053165;28;19948;-74
2022/11/16 08:53:47;;;;;;;;;;;10.30;86.80;;;;;;5066313;28;21055;-75
2022/11/16 08:56:13;;;;;;;;;;;10.40;86.80;;;;;;5048750;28;19928;-74
2022/11/16 08:58:39;;;;;;;;;;;10.40;86.60;;;;;;5042178;28;19916;-75
2022/11/16 09:01:12;;;;;;;;;;;10.50;86.70;;;;;;5045316;28;19948;-74
2022/11/16 09:03:38;;;;;;;;;;;10.50;86.50;;;;;;5046574;28;19959;-74
2022/11/16 09:06:04;;;;;;;;;;;10.60;86.60;;;;;;5046188;28;19920;-75
2022/11/16 09:08:29;;;;;;;;;;;10.60;86.50;;;;;;5050768;28;19924;-74
2022/11/16 09:10:54;;;;;;;;;;;10.60;86.50;;;;;;5043515;28;19916;-75
2022/11/16 09:13:20;;;;;;;;;;;10.70;86.50;;;;;;5063037;28;19917;-75
2022/11/16 09:15:45;;;;;;;;;;;10.70;86.50;;;;;;5065415;28;19932;-75
2022/11/16 09:18:11;;;;;;;;;;;10.80;86.50;;;;;;5064292;28;20217;-75
2022/11/16 09:20:36;;;;;;;;;;;10.90;86.50;;;;;;5045748;28;20004;-75
2022/11/16 09:23:02;;;;;;;;;;;11.00;86.50;;;;;;5037841;28;19921;-75
2022/11/16 09:25:27;;;;;;;;;;;11.10;86.40;;;;;;5043848;28;20493;-75
2022/11/16 09:27:53;;;;;;;;;;;11.10;86.30;;;;;;5047304;28;19925;-75
2022/11/16 09:30:18;;;;;;;;;;;11.20;86.20;;;;;;5050508;28;19926;-75
2022/11/16 09:32:44;;;;;;;;;;;11.20;86.10;;;;;;5032716;28;19928;-74
2022/11/16 09:35:10;;;;;;;;;;;11.30;86.20;;;;;;5052323;28;19959;-74
2022/11/16 09:37:35;;;;;;;;;;;11.30;86.10;;;;;;5044620;28;19920;-75
2022/11/16 09:40:01;;;;;;;;;;;11.40;86.10;;;;;;5067553;28;19925;-76
2022/11/16 09:42:45;;;;;;;;;;;11.40;86.10;;;;;;5043304;28;19917;-75
2022/11/16 09:45:24;;;;;;;;;;;11.50;86.10;;;;;;5062580;28;19990;-75
2022/11/16 09:47:58;;;;;;;;;;;11.60;86.10;;;;;;5029800;28;19917;-74
2022/11/16 09:50:23;;;;;;;;;;;11.80;86.20;;;;;;5066348;28;20027;-74
2022/11/16 09:52:49;;;;;;;;;;;11.90;86.00;;;;;;5064555;28;20401;-75
2022/11/16 09:55:19;;;;;;;;;;;11.90;85.80;;;;;;5045437;28;19920;-74
2022/11/16 09:57:44;;;;;;;;;;;12.10;85.80;;;;;;5045810;28;20376;-75
2022/11/16 10:00:21;;;;;;;;;;;12.10;85.60;;;;;;5068260;28;19932;-75
2022/11/16 10:02:47;;;;;;;;;;;12.20;85.60;;;;;;5049968;28;19928;-74
2022/11/16 10:05:19;;;;;;;;;;;12.30;85.60;;;;;;5067373;28;20570;-77
2022/11/16 10:07:45;;;;;;;;;;;12.30;85.50;;;;;;5070905;28;19957;-75
2022/11/16 10:10:11;;;;;;;;;;;12.40;85.50;;;;;;5049446;28;19923;-74
2022/11/16 10:12:42;;;;;;;;;;;12.40;85.50;;;;;;5040985;28;19962;-76
2022/11/16 10:15:27;;;;;;;;;;;12.60;85.60;;;;;;5054415;28;19924;-75
2022/11/16 10:18:01;;;;;;;;;;;12.70;85.50;;;;;;5069211;28;19925;-75
2022/11/16 10:20:27;;;;;;;;;;;12.90;85.40;;;;;;5027058;28;19931;-74
2022/11/16 10:22:55;;;;;;;;;;;13.10;85.20;;;;;;5052122;28;19999;-74
2022/11/16 10:25:21;;;;;;;;;;;13.20;85.10;;;;;;5048749;28;19913;-74
2022/11/16 10:27:49;;;;;;;;;;;13.30;85.00;;;;;;5032044;28;19916;-74
2022/11/16 10:30:15;;;;;;;;;;;13.40;84.80;;;;;;5071495;28;19928;-73
2022/11/16 10:32:53;;;;;;;;;;;13.50;84.80;;;;;;5035528;28;19924;-74
2022/11/16 10:35:24;;;;;;;;;;;13.50;84.70;;;;;;5065348;28;20554;-76
2022/11/16 10:37:49;;;;;;;;;;;13.60;84.60;;;;;;5053237;28;20330;-75
2022/11/16 10:40:18;;;;;;;;;;;13.70;84.60;;;;;;5056754;28;19954;-76
2022/11/16 10:42:45;;;;;;;;;;;13.80;85.30;;;;;;5044884;28;19932;-75
2022/11/16 10:45:24;;;;;;;;;;;13.90;84.50;;;;;;5051164;28;20338;-75
2022/11/16 10:47:51;;;;;;;;;;;14.00;84.40;;;;;;5078092;28;19946;-74
2022/11/16 10:50:30;;;;;;;;;;;14.10;84.30;;;;;;5052508;28;19916;-76
2022/11/16 10:52:56;;;;;;;;;;;14.20;84.20;;;;;;5053919;28;20479;-75
2022/11/16 10:55:21;;;;;;;;;;;14.20;84.90;;;;;;5077372;28;19929;-76
2022/11/16 10:58:03;;;;;;;;;;;14.30;84.10;;;;;;5044189;28;19925;-74
2022/11/16 11:00:35;;;;;;;;;;;14.40;84.00;;;;;;5060716;28;20051;-75
2022/11/16 11:03:00;;;;;;;;;;;14.50;83.90;;;;;;5044486;28;19925;-75
2022/11/16 11:05:26;;;;;;;;;;;14.60;83.70;;;;;;5055052;28;19950;-75
2022/11/16 11:08:02;;;;;;;;;;;14.70;83.60;;;;;;5057311;28;19924;-75
2022/11/16 11:10:29;;;;;;;;;;;14.80;83.70;;;;;;5036818;28;20272;-75
2022/11/16 11:13:04;;;;;;;;;;;14.80;83.50;;;;;;5057614;28;19923;-75
2022/11/16 11:15:29;;;;;;;;;;;14.80;83.40;;;;;;5073316;28;20019;-74
2022/11/16 11:18:10;;;;;;;;;;;14.70;83.30;;;;;;5058487;28;19958;-74
2022/11/16 11:20:36;;;;;;;;;;;14.80;83.40;;;;;;5058011;28;19926;-76
2022/11/16 11:23:02;;;;;;;;;;;14.80;83.50;;;;;;5061026;28;19973;-74
2022/11/16 11:25:31;;;;;;;;;;;15.00;83.60;;;;;;5058553;28;19920;-75
2022/11/16 11:28:03;;;;;;;;;;;15.10;83.40;;;;;;5035223;28;19999;-75
2022/11/16 11:30:28;;;;;;;;;;;15.20;83.40;;;;;;5074886;28;19931;-76
2022/11/16 11:32:54;;;;;;;;;;;15.40;83.30;;;;;;5037059;28;19920;-75
2022/11/16 11:35:37;;;;;;;;;;;15.50;83.20;;;;;;5051699;28;19960;-75
2022/11/16 11:38:02;;;;;;;;;;;15.70;83.10;;;;;;5054894;28;19924;-74
2022/11/16 11:40:28;;;;;;;;;;;15.80;82.80;;;;;;5037909;28;19920;-75
2022/11/16 11:42:55;;;;;;;;;;;15.90;82.70;;;;;;5039676;28;19994;-74
2022/11/16 11:45:22;;;;;;;;;;;16.10;82.60;;;;;;5053609;28;19927;-75
2022/11/16 11:47:47;;;;;;;;;;;16.20;82.40;;;;;;5054261;28;19986;-75
2022/11/16 11:50:16;;;;;;;;;;;16.30;82.30;;;;;;5073475;28;20003;-76
2022/11/16 11:52:45;;;;;;;;;;;16.30;82.10;;;;;;5053537;28;19916;-74
2022/11/16 11:55:14;;;;;;;;;;;16.40;82.00;;;;;;5055925;28;19948;-74
2022/11/16 11:57:41;;;;;;;;;;;16.40;81.90;;;;;;5040927;28;20214;-75
2022/11/16 12:00:08;;;;;;;;;;;16.30;81.80;;;;;;5056557;28;20003;-74
2022/11/16 12:02:39;;;;;;;;;;;16.40;81.90;;;;;;5075721;28;19972;-74
2022/11/16 12:05:07;;;;;;;;;;;16.40;81.90;;;;;;5055313;28;20380;-73
2022/11/16 12:07:36;;;;;;;;;;;16.40;82.00;;;;;;5072035;28;19920;-75
2022/11/16 12:10:24;;;;;;;;;;;16.50;82.00;;;;;;5074131;28;19921;-75
2022/11/16 12:12:49;;;;;;;;;;;16.60;82.00;;;;;;5057067;28;19924;-75
2022/11/16 12:15:14;;;;;;;;;;;16.70;81.90;;;;;;5055173;28;19921;-75
2022/11/16 12:17:54;;;;;;;;;;;16.80;81.80;;;;;;5047946;28;19951;-74
2022/11/16 12:20:37;;;;;;;;;;;16.90;81.60;;;;;;5032525;28;20455;-75
2022/11/16 12:23:10;;;;;;;;;;;17.00;81.40;;;;;;5046994;28;19917;-74
2022/11/16 12:25:59;;;;;;;;;;;17.00;81.20;;;;;;5039861;28;19939;-76
2022/11/16 12:28:30;;;;;;;;;;;17.00;82.00;;;;;;4991615;28;19925;-76
2022/11/16 12:30:59;;;;;;;;;;;17.00;81.10;;;;;;5038451;28;19963;-75
2022/11/16 12:33:34;;;;;;;;;;;16.90;81.10;;;;;;5045797;28;19924;-75
2022/11/16 12:36:01;;;;;;;;;;;16.90;81.10;;;;;;5031290;28;19928;-74
2022/11/16 12:38:32;;;;;;;;;;;17.00;81.30;;;;;;5044633;28;19925;-75
2022/11/16 12:41:15;;;;;;;;;;;17.10;81.30;;;;;;5050893;28;19990;-75
2022/11/16 12:43:44;;;;;;;;;;;17.20;81.20;;;;;;5036796;28;19932;-75
2022/11/16 12:46:19;;;;;;;;;;;17.30;81.20;;;;;;5026658;28;19921;-74
2022/11/16 12:49:10;;;;;;;;;;;17.40;81.30;;;;;;5028096;28;19924;-75
2022/11/16 12:51:36;;;;;;;;;;;17.40;81.20;;;;;;5038494;28;19921;-75
2022/11/16 12:54:07;;;;;;;;;;;17.60;81.10;;;;;;5030193;28;20385;-75
2022/11/16 12:56:33;;;;;;;;;;;17.60;81.10;;;;;;5049767;28;19925;-74
2022/11/16 12:59:01;;;;;;;;;;;17.70;81.00;;;;;;5049541;28;19931;-75
2022/11/16 13:01:29;;;;;;;;;;;17.80;80.90;;;;;;5051500;28;19971;-75
2022/11/16 13:04:00;;;;;;;;;;;17.90;80.90;;;;;;5052338;28;19955;-75
2022/11/16 13:06:27;;;;;;;;;;;18.10;81.00;;;;;;5046689;28;19978;-75
2022/11/16 13:08:52;;;;;;;;;;;18.20;80.90;;;;;;5053136;28;19936;-76
2022/11/16 13:11:37;;;;;;;;;;;18.20;80.50;;;;;;5053045;28;19924;-75
2022/11/16 13:14:03;;;;;;;;;;;18.20;80.20;;;;;;5045184;28;19917;-74
2022/11/16 13:16:29;;;;;;;;;;;18.20;80.00;;;;;;5033308;28;20053;-76
2022/11/16 13:18:54;;;;;;;;;;;18.10;79.80;;;;;;5053509;28;20393;-75
2022/11/16 13:21:42;;;;;;;;;;;18.00;80.60;;;;;;5034616;28;19956;-75
2022/11/16 13:24:22;;;;;;;;;;;17.90;79.80;;;;;;5038732;28;19921;-75
2022/11/16 13:27:07;;;;;;;;;;;17.90;79.80;;;;;;5045725;28;20012;-75
2022/11/16 13:29:32;;;;;;;;;;;17.90;80.10;;;;;;5035743;28;19917;-76
2022/11/16 13:32:12;;;;;;;;;;;17.90;80.10;;;;;;5036493;28;19927;-76
2022/11/16 13:34:38;;;;;;;;;;;17.90;80.00;;;;;;5045435;28;20384;-75
2022/11/16 13:37:22;;;;;;;;;;;17.80;79.80;;;;;;5036166;28;19920;-76
2022/11/16 13:39:57;;;;;;;;;;;17.80;79.90;;;;;;5049668;28;20013;-75
2022/11/16 13:42:22;;;;;;;;;;;17.70;79.80;;;;;;5040730;28;19920;-74
2022/11/16 13:44:48;;;;;;;;;;;17.60;79.70;;;;;;5049753;28;20373;-75
2022/11/16 13:47:20;;;;;;;;;;;17.60;79.70;;;;;;5033428;28;19921;-76
2022/11/16 13:49:52;;;;;;;;;;;17.50;79.80;;;;;;5041595;28;19917;-75
2022/11/16 13:52:18;;;;;;;;;;;17.50;79.80;;;;;;5045659;28;20264;-74
2022/11/16 13:54:45;;;;;;;;;;;17.40;79.80;;;;;;5025127;28;19928;-75
2022/11/16 13:57:20;;;;;;;;;;;17.40;79.80;;;;;;5037807;28;20347;-74
2022/11/16 13:59:46;;;;;;;;;;;17.40;79.80;;;;;;5042368;28;19919;-73
2022/11/16 14:02:30;;;;;;;;;;;17.30;79.70;;;;;;5022008;28;19912;-75
2022/11/16 14:05:11;;;;;;;;;;;17.20;79.80;;;;;;5046542;28;19953;-73
2022/11/16 14:07:48;;;;;;;;;;;17.10;79.80;;;;;;5045838;28;19932;-74
2022/11/16 14:10:31;;;;;;;;;;;17.10;79.90;;;;;;5022372;28;19924;-73
2022/11/16 14:12:57;;;;;;;;;;;17.00;79.80;;;;;;5045359;28;20116;-75
2022/11/16 14:15:23;;;;;;;;;;;16.90;79.80;;;;;;5036458;28;19925;-74
2022/11/16 14:17:49;;;;;;;;;;;16.90;79.80;;;;;;5031436;28;20369;-74
2022/11/16 14:20:21;;;;;;;;;;;16.90;79.90;;;;;;5028896;28;19940;-74
2022/11/16 14:22:52;;;;;;;;;;;16.90;80.10;;;;;;5061984;28;19945;-74
2022/11/16 14:25:20;;;;;;;;;;;16.90;80.20;;;;;;5063196;28;19925;-74
2022/11/16 14:27:55;;;;;;;;;;;16.90;80.80;;;;;;5064115;28;20376;-74
2022/11/16 14:30:25;;;;;;;;;;;17.00;81.20;;;;;;5044277;28;19947;-74
2022/11/16 14:32:51;;;;;;;;;;;17.20;81.40;;;;;;5025377;28;19999;-75
2022/11/16 14:35:35;;;;;;;;;;;17.40;81.10;;;;;;5036799;28;19932;-74
2022/11/16 14:38:05;;;;;;;;;;;17.50;80.60;;;;;;5042552;28;19925;-73
2022/11/16 14:40:46;;;;;;;;;;;17.50;80.20;;;;;;5040016;28;19920;-74
2022/11/16 14:43:22;;;;;;;;;;;17.50;80.00;;;;;;5041347;28;20012;-74
2022/11/16 14:45:50;;;;;;;;;;;17.40;80.00;;;;;;5044096;28;22170;-73
2022/11/16 14:48:17;;;;;;;;;;;17.50;80.40;;;;;;5046005;28;19921;-74
2022/11/16 14:50:42;;;;;;;;;;;17.50;80.50;;;;;;5046861;28;19949;-74
2022/11/16 14:53:08;;;;;;;;;;;17.60;80.60;;;;;;5060489;28;19956;-74
2022/11/16 14:55:39;;;;;;;;;;;17.60;80.40;;;;;;5038733;28;20011;-74
2022/11/16 14:58:07;;;;;;;;;;;17.60;80.10;;;;;;5039030;28;19916;-72
2022/11/16 15:00:33;;;;;;;;;;;17.50;79.90;;;;;;5036601;28;19917;-74
2022/11/16 15:02:58;;;;;;;;;;;17.50;79.80;;;;;;5040170;28;19925;-74
2022/11/16 15:05:27;;;;;;;;;;;17.40;79.70;;;;;;5040456;28;20493;-74
2022/11/16 15:07:52;;;;;;;;;;;17.30;79.60;;;;;;5043835;28;19924;-73
2022/11/16 15:10:19;;;;;;;;;;;17.20;79.50;;;;;;5027564;28;20328;-74